Otto, Arkansas
Current Conditions -  °F | °C
As of 2:58 PM on Saturday 20 Dec 2014 (Local Time) from KLRF Reporting Station
Overcast Overcast  
Wind Chill: 47°   Ceiling: 5000
Heat Index: 47°   Visibility: 10mi
Dew Point: 35°   Wind: 2mph
Humidity: 63%   Direction: NA
Pressure: 30.21"   Gusts: NA
Location:  35.0719°N, 92.1713°W
Report Text: KLRF 202058Z AUTO VRB02KT 10SM OVC050 09/02 A3021 RMK AO2 SLP234 T00860018 57015
Loading
Personal Weather Stations






























Interactive Weather Map New forecast layout! Learn more

10-Day Weather Forecast

Advertisements
Track Severe Weather on mobile